Time;durP1;ratioP1;P1;durP2;ratioP2;P2;SDS_P1;SDS_P2;PMS_P1;PMS_P2;Temp;Humidity;BMP_temperature;BMP_pressure;BME280_temperature;BME280_humidity;BME280_pressure;Samples;Min_cycle;Max_cycle;Signal;HPM_P1;HPM_P2
2021/06/17 00:10:27;;;;;;;26.75;11.40;;;;;;;15.18;99.45;100901.02;713789;1202;115002;-75
2021/06/17 00:25:31;;;;;;;12.98;6.73;;;;;;;14.93;100.00;100902.59;713792;1201;114663;-74
2021/06/17 00:40:33;;;;;;;12.47;4.17;;;;;;;15.02;100.00;100896.41;713761;1205;114095;-75
2021/06/17 00:55:41;;;;;;;3.50;2.63;;;;;;;15.47;97.77;100889.39;713711;1205;114492;-75
2021/06/17 01:10:57;;;;;;;5.60;2.55;;;;;;;15.47;96.41;100894.68;713784;1202;113942;-75
2021/06/17 01:26:22;;;;;;;5.23;2.70;;;;;;;15.38;95.52;100896.41;714138;1177;113736;-76
2021/06/17 01:41:30;;;;;;;4.47;2.53;;;;;;;15.26;96.06;100913.48;713789;1202;114321;-77
2021/06/17 01:56:33;;;;;;;7.78;3.08;;;;;;;15.07;96.19;100915.29;713853;1204;113695;-75
2021/06/17 02:11:37;;;;;;;3.63;3.33;;;;;;;14.86;97.13;100909.42;714016;1203;114965;-76
2021/06/17 02:26:42;;;;;;;7.08;2.45;;;;;;;14.67;97.87;100918.30;713833;1178;113905;-77
2021/06/17 02:41:47;;;;;;;5.83;3.30;;;;;;;14.62;98.13;100918.69;713890;1177;113814;-76
2021/06/17 02:57:03;;;;;;;5.00;3.20;;;;;;;14.61;99.29;100930.25;714091;1205;113963;-75
2021/06/17 03:12:10;;;;;;;6.73;2.98;;;;;;;14.72;99.59;100942.46;713949;1205;113784;-74
2021/06/17 03:27:12;;;;;;;5.38;3.00;;;;;;;14.85;99.60;100932.38;713142;1178;114332;-74
2021/06/17 03:42:17;;;;;;;7.08;4.80;;;;;;;15.15;100.00;100933.05;713982;1201;115101;-76
2021/06/17 03:57:22;;;;;;;5.43;3.43;;;;;;;15.68;99.73;100933.17;713906;1202;114705;-75
2021/06/17 04:12:29;;;;;;;7.60;3.50;;;;;;;16.24;98.37;100933.77;713988;1177;113834;-75
2021/06/17 04:27:34;;;;;;;5.60;2.90;;;;;;;16.85;96.42;100946.95;713934;1200;113780;-75
2021/06/17 04:42:36;;;;;;;4.98;3.48;;;;;;;17.49;94.87;100938.52;714051;1190;114500;-76
2021/06/17 04:57:39;;;;;;;10.03;2.35;;;;;;;18.12;91.33;100940.50;713829;1203;115248;-73
2021/06/17 05:12:41;;;;;;;8.38;3.53;;;;;;;18.79;87.87;100936.63;716946;1167;114013;-84
2021/06/17 05:27:43;;;;;;;8.73;3.10;;;;;;;19.36;85.51;100945.30;714511;1203;115496;-85
2021/06/17 05:42:45;;;;;;;5.58;2.08;;;;;;;19.84;82.17;100938.97;712860;1193;114390;-80
2021/06/17 05:57:48;;;;;;;5.20;2.18;;;;;;;20.34;80.57;100952.63;713795;1202;115258;-81
2021/06/17 06:12:50;;;;;;;3.05;1.80;;;;;;;20.89;77.91;100953.13;713656;1203;114617;-89
2021/06/17 06:27:53;;;;;;;4.80;2.33;;;;;;;21.36;75.66;100964.32;714141;1176;113667;-81
2021/06/17 06:42:56;;;;;;;8.20;2.20;;;;;;;21.75;73.16;100981.77;715169;1200;113711;-86
2021/06/17 06:57:58;;;;;;;5.40;2.20;;;;;;;22.50;71.70;100975.92;714150;1201;114649;-86
2021/06/17 07:13:00;;;;;;;3.70;1.43;;;;;;;22.88;68.14;100988.86;714411;1184;113912;-76
2021/06/17 07:28:03;;;;;;;2.47;1.47;;;;;;;23.60;66.96;100999.98;714571;1203;113991;-74
2021/06/17 07:43:05;;;;;;;6.43;2.55;;;;;;;24.24;65.43;100993.20;713990;1178;114856;-77
2021/06/17 07:58:08;;;;;;;10.67;3.90;;;;;;;25.00;62.98;101009.70;716131;1201;114418;-78
2021/06/17 08:13:10;;;;;;;6.30;2.30;;;;;;;25.75;60.74;101010.93;714417;1205;115458;-78
2021/06/17 08:28:13;;;;;;;4.70;1.50;;;;;;;26.29;58.58;101026.60;713692;1203;115008;-78
2021/06/17 08:43:15;;;;;;;3.93;1.95;;;;;;;27.00;57.25;101008.23;713798;1205;114648;-79
2021/06/17 08:58:17;;;;;;;5.15;1.85;;;;;;;27.42;56.28;101015.57;713915;1203;114408;-79
2021/06/17 09:13:20;;;;;;;6.50;1.90;;;;;;;27.54;54.59;101024.50;714002;1201;114610;-79
2021/06/17 09:28:23;;;;;;;4.63;1.60;;;;;;;28.25;53.43;101021.90;713974;1177;114196;-79
2021/06/17 09:43:28;;;;;;;5.63;2.10;;;;;;;28.45;51.50;101024.22;713960;1203;113912;-79
2021/06/17 09:58:39;;;;;;;6.00;2.80;;;;;;;28.85;51.95;101015.38;713975;1205;113405;-79
2021/06/17 10:13:41;;;;;;;2.85;1.60;;;;;;;29.58;51.21;101001.30;713226;1202;113825;-79
2021/06/17 10:28:47;;;;;;;2.83;1.37;;;;;;;30.03;50.17;100999.59;714362;1205;114081;-79
2021/06/17 10:43:49;;;;;;;2.48;1.58;;;;;;;30.47;49.36;101007.77;715317;1202;114284;-82
2021/06/17 10:58:54;;;;;;;2.88;1.70;;;;;;;30.52;48.95;100994.31;714260;1202;114738;-76
2021/06/17 11:13:57;;;;;;;7.60;3.63;;;;;;;30.90;47.73;100975.53;716951;1203;113581;-81
2021/06/17 11:28:59;;;;;;;5.45;2.20;;;;;;;31.40;47.61;100978.17;724455;1202;114513;-82
2021/06/17 11:44:04;;;;;;;2.45;1.90;;;;;;;31.74;46.33;100967.91;714468;1202;113704;-82
2021/06/17 11:59:30;;;;;;;3.17;1.40;;;;;;;31.56;45.83;100971.00;714460;1177;113565;-83
2021/06/17 12:14:58;;;;;;;3.27;1.60;;;;;;;31.75;45.39;100949.73;714292;1205;114210;-82
2021/06/17 12:30:32;;;;;;;2.85;1.95;;;;;;;32.31;44.80;100954.69;714426;1192;113222;-82
2021/06/17 12:45:35;;;;;;;3.00;1.50;;;;;;;32.73;43.84;100945.62;713580;1202;115101;-74
2021/06/17 13:00:37;;;;;;;6.20;3.35;;;;;;;32.73;43.89;100933.92;714271;1202;114221;-75
2021/06/17 13:15:40;;;;;;;3.00;1.60;;;;;;;32.71;42.71;100914.34;714090;1202;115352;-75
2021/06/17 13:30:46;;;;;;;3.20;1.20;;;;;;;32.65;43.55;100899.92;714164;1202;114271;-74
2021/06/17 13:45:49;;;;;;;2.43;1.57;;;;;;;32.55;43.18;100889.88;714222;1200;113413;-74
2021/06/17 14:00:51;;;;;;;3.15;1.53;;;;;;;32.87;42.49;100894.29;714351;1203;113878;-72
2021/06/17 14:15:53;;;;;;;2.33;1.30;;;;;;;32.68;42.87;100883.92;713939;1203;114281;-74
2021/06/17 14:30:56;;;;;;;2.47;1.53;;;;;;;32.81;42.73;100881.78;713621;1205;113832;-75
2021/06/17 14:45:58;;;;;;;3.85;1.50;;;;;;;32.56;43.25;100872.51;713401;1205;114167;-72
2021/06/17 15:01:00;;;;;;;4.18;1.35;;;;;;;32.28;43.54;100861.05;714037;1203;114404;-78
2021/06/17 15:16:05;;;;;;;3.83;2.87;;;;;;;32.21;43.66;100851.52;714120;1202;115669;-78
2021/06/17 15:31:08;;;;;;;10.70;3.97;;;;;;;32.12;43.70;100845.75;714280;1202;113867;-79
2021/06/17 15:46:11;;;;;;;3.23;1.60;;;;;;;31.30;43.88;100838.81;714413;1177;114775;-78
2021/06/17 16:01:14;;;;;;;6.93;4.33;;;;;;;31.19;43.94;100842.55;714397;1202;114376;-83
2021/06/17 16:16:18;;;;;;;7.80;2.93;;;;;;;30.82;43.68;100837.90;714268;1177;113720;-82
2021/06/17 16:31:21;;;;;;;3.13;2.00;;;;;;;30.37;43.71;100840.68;714051;1202;114629;-84
2021/06/17 16:46:24;;;;;;;7.00;3.60;;;;;;;29.98;42.93;100843.47;714850;1179;114294;-86
2021/06/17 17:01:26;;;;;;;4.00;1.93;;;;;;;29.65;45.18;100828.97;714639;1176;113806;-88
2021/06/17 17:16:29;;;;;;;4.23;1.30;;;;;;;29.00;45.17;100833.93;714791;1202;115092;-88
2021/06/17 17:31:32;;;;;;;5.95;1.80;;;;;;;28.51;45.06;100833.61;714776;1191;114153;-87
2021/06/17 17:46:34;;;;;;;4.20;1.78;;;;;;;28.17;45.54;100838.89;714788;1203;114133;-87
2021/06/17 18:01:36;;;;;;;6.70;1.90;;;;;;;27.62;45.63;100840.13;714549;1200;113783;-88
2021/06/17 18:17:00;;;;;;;2.37;1.30;;;;;;;26.95;47.43;100839.37;714356;1202;115167;-85
2021/06/17 18:32:03;;;;;;;3.10;2.15;;;;;;;26.14;49.49;100853.03;717145;1202;114096;-86
2021/06/17 18:47:11;;;;;;;4.80;2.48;;;;;;;25.58;50.81;100862.92;715151;1200;114925;-89
2021/06/17 19:02:15;;;;;;;7.23;3.20;;;;;;;24.68;52.92;100859.42;714986;1202;114959;-89
2021/06/17 19:17:18;;;;;;;11.60;5.88;;;;;;;24.16;53.79;100869.31;714786;1179;113743;-88
2021/06/17 19:32:22;;;;;;;11.50;3.15;;;;;;;23.49;55.80;100888.14;714598;1203;114455;-88
2021/06/17 19:47:24;;;;;;;10.43;6.10;;;;;;;22.97;56.73;100891.35;715692;1205;113326;-86
2021/06/17 20:02:27;;;;;;;5.73;3.23;;;;;;;22.43;57.87;100899.22;714100;1202;115006;-85
2021/06/17 20:17:29;;;;;;;4.08;2.95;;;;;;;22.05;59.10;100885.41;714248;1202;115441;-80
2021/06/17 20:32:31;;;;;;;6.30;3.43;;;;;;;21.60;59.62;100891.91;714927;1196;114522;-86
2021/06/17 20:47:34;;;;;;;5.13;2.83;;;;;;;21.28;61.08;100907.38;714684;1177;113715;-87
2021/06/17 21:02:36;;;;;;;6.90;3.20;;;;;;;20.92;62.07;100913.59;714485;1202;114736;-87
2021/06/17 21:17:40;;;;;;;3.63;2.63;;;;;;;20.54;63.33;100907.58;714569;1202;114566;-86
2021/06/17 21:32:42;;;;;;;4.10;2.27;;;;;;;20.31;64.32;100911.19;714327;1203;113519;-84
2021/06/17 21:47:45;;;;;;;6.18;2.23;;;;;;;20.19;64.51;100915.30;714847;1203;113950;-80
2021/06/17 22:02:47;;;;;;;8.33;4.50;;;;;;;19.94;65.30;100919.06;714491;1201;114209;-81
2021/06/17 22:17:50;;;;;;;4.43;2.77;;;;;;;19.77;65.89;100899.72;714411;1203;114237;-82
2021/06/17 22:32:52;;;;;;;3.30;2.90;;;;;;;19.66;66.98;100894.83;714616;1202;114329;-81
2021/06/17 22:47:54;;;;;;;6.55;3.00;;;;;;;19.42;68.05;100894.02;714807;1201;113845;-83
2021/06/17 23:03:05;;;;;;;6.40;3.40;;;;;;;19.19;68.88;100888.73;715506;1202;114507;-83
2021/06/17 23:18:08;;;;;;;7.45;3.85;;;;;;;18.91;69.94;100897.23;714561;1200;114658;-82
2021/06/17 23:33:11;;;;;;;5.63;3.58;;;;;;;18.76;70.74;100894.44;714657;1188;113831;-83
2021/06/17 23:48:13;;;;;;;6.50;3.40;;;;;;;18.57;71.52;100889.58;714060;1193;114022;-83
